Somersham, United Kingdom
Current Conditions -  °F | °C
As of 6:58 AM on Friday 28 Nov 2014 (Local Time) from EGUN Reporting Station
Haze Haze  
Wind Chill: 52°   Ceiling: 700
Heat Index: 52°   Visibility: 6mi
Dew Point: 50°   Wind: 8mph
Humidity: 94%   Direction: 90°E
Pressure: 29.63"   Gusts: NA
Location:  52.38°N, 0°W
Report Text: EGUN 280658Z AUTO 09007KT 9000 BR OVC007 11/10 A2963 RMK AO2 SLP037 $
Loading
Personal Weather Stations






























Interactive Weather Map New forecast layout! Learn more

10-Day Weather Forecast

Advertisements
Track Severe Weather on mobile